createdAt,value
2022-08-08T00:00:51.102Z,100.00
2022-08-08T00:02:33.301Z,100.00
2022-08-08T00:06:00.797Z,100.00
2022-08-08T00:08:37.299Z,100.00
2022-08-08T00:11:46.475Z,100.00
2022-08-08T00:15:09.977Z,100.00
2022-08-08T00:18:04.727Z,100.00
2022-08-08T00:20:56.646Z,100.00
2022-08-08T00:23:47.588Z,100.00
2022-08-08T00:26:40.319Z,100.00
2022-08-08T00:29:45.416Z,100.00
2022-08-08T00:32:38.447Z,100.00
2022-08-08T00:35:38.904Z,100.00
2022-08-08T00:38:44.434Z,100.00
2022-08-08T00:42:30.303Z,100.00
2022-08-08T00:45:41.778Z,100.00
2022-08-08T00:48:59.461Z,100.00
2022-08-08T00:52:20.093Z,100.00
2022-08-08T00:55:36.281Z,100.00
2022-08-08T00:59:11.422Z,100.00
2022-08-08T01:03:58.547Z,100.00
2022-08-08T01:06:16.910Z,100.00
2022-08-08T01:09:36.263Z,100.00
2022-08-08T01:13:16.715Z,100.00
2022-08-08T01:16:28.400Z,100.00
2022-08-08T01:19:41.875Z,100.00
2022-08-08T01:23:55.689Z,100.00
2022-08-08T01:26:27.308Z,100.00
2022-08-08T01:29:35.832Z,100.00
2022-08-08T01:33:16.338Z,100.00
2022-08-08T01:36:25.828Z,100.00
2022-08-08T01:39:41.982Z,100.00
2022-08-08T01:42:53.869Z,100.00
2022-08-08T01:45:41.063Z,100.00
2022-08-08T01:48:58.798Z,100.00
2022-08-08T01:52:43.591Z,100.00
2022-08-08T01:56:28.908Z,100.00
2022-08-08T01:58:51.288Z,100.00
2022-08-08T02:02:09.866Z,100.00
2022-08-08T02:05:23.266Z,100.00
2022-08-08T02:08:47.154Z,100.00
2022-08-08T02:11:52.875Z,100.00
2022-08-08T02:15:05.149Z,100.00
2022-08-08T02:18:32.827Z,100.00
2022-08-08T02:21:44.721Z,100.00
2022-08-08T02:24:45.511Z,100.00
2022-08-08T02:28:01.859Z,100.00
2022-08-08T02:31:07.149Z,100.00
2022-08-08T02:34:35.279Z,100.00
2022-08-08T02:37:53.176Z,100.00
2022-08-08T02:41:58.169Z,100.00
2022-08-08T02:45:00.067Z,100.00
2022-08-08T02:48:09.121Z,100.00
2022-08-08T02:51:13.067Z,100.00
2022-08-08T02:54:50.449Z,100.00
2022-08-08T02:57:44.543Z,100.00
2022-08-08T03:00:51.388Z,100.00
2022-08-08T03:05:03.590Z,100.00
2022-08-08T03:08:13.710Z,100.00
2022-08-08T03:12:01.479Z,100.00
2022-08-08T03:15:56.874Z,100.00
2022-08-08T03:18:31.126Z,100.00
2022-08-08T03:21:18.180Z,100.00
2022-08-08T03:24:04.212Z,100.00
2022-08-08T03:27:10.128Z,100.00
2022-08-08T03:30:07.593Z,100.00
2022-08-08T03:33:56.154Z,100.00
2022-08-08T03:36:27.886Z,100.00
2022-08-08T03:39:16.810Z,100.00
2022-08-08T03:42:26.746Z,100.00
2022-08-08T03:46:04.800Z,100.00
2022-08-08T03:49:09.720Z,100.00
2022-08-08T03:51:50.450Z,100.00
2022-08-08T03:55:02.019Z,100.00
2022-08-08T03:58:35.645Z,100.00
2022-08-08T04:01:20.779Z,100.00
2022-08-08T04:04:07.478Z,100.00
2022-08-08T04:07:01.442Z,100.00
2022-08-08T04:10:02.797Z,100.00
2022-08-08T04:12:55.280Z,100.00
2022-08-08T04:15:55.054Z,100.00
2022-08-08T04:18:48.946Z,100.00
2022-08-08T04:21:41.456Z,100.00
2022-08-08T04:24:32.158Z,100.00
2022-08-08T04:28:02.862Z,100.00
2022-08-08T04:30:28.272Z,100.00
2022-08-08T04:33:22.860Z,100.00
2022-08-08T04:36:10.610Z,100.00
2022-08-08T04:39:47.697Z,100.00
2022-08-08T04:42:02.452Z,100.00
2022-08-08T04:44:48.091Z,100.00
2022-08-08T04:47:36.722Z,100.00
2022-08-08T04:50:38.556Z,100.00
2022-08-08T04:53:52.641Z,100.00
2022-08-08T04:56:35.404Z,100.00
2022-08-08T04:59:27.005Z,100.00
2022-08-08T05:02:16.228Z,100.00
2022-08-08T05:05:06.421Z,100.00
2022-08-08T05:08:02.767Z,100.00
2022-08-08T05:10:49.071Z,100.00
2022-08-08T05:13:55.260Z,100.00
2022-08-08T05:16:55.000Z,100.00
2022-08-08T05:20:11.903Z,100.00
2022-08-08T05:22:57.207Z,100.00
2022-08-08T05:25:48.760Z,100.00
2022-08-08T05:28:56.899Z,100.00
2022-08-08T05:32:03.392Z,100.00
2022-08-08T05:34:49.887Z,100.00
2022-08-08T05:37:53.836Z,100.00
2022-08-08T05:41:04.672Z,100.00
2022-08-08T05:44:04.947Z,100.00
2022-08-08T05:46:54.720Z,100.00
2022-08-08T05:49:54.148Z,100.00
2022-08-08T05:52:44.232Z,100.00
2022-08-08T05:56:07.794Z,100.00
2022-08-08T05:58:54.192Z,100.00
2022-08-08T06:01:58.097Z,100.00
2022-08-08T06:04:56.332Z,100.00
2022-08-08T06:07:47.606Z,100.00
2022-08-08T06:10:35.082Z,100.00
2022-08-08T06:13:35.822Z,100.00
2022-08-08T06:16:30.356Z,100.00
2022-08-08T06:19:41.545Z,100.00
2022-08-08T06:22:35.360Z,100.00
2022-08-08T06:25:33.186Z,100.00
2022-08-08T06:28:35.269Z,100.00
2022-08-08T06:31:22.847Z,100.00
2022-08-08T06:34:36.959Z,100.00
2022-08-08T06:37:28.281Z,100.00
2022-08-08T06:40:30.018Z,100.00
2022-08-08T06:43:30.523Z,100.00
2022-08-08T06:46:31.070Z,100.00
2022-08-08T06:49:19.228Z,100.00
2022-08-08T06:52:27.650Z,100.00
2022-08-08T06:55:16.570Z,100.00
2022-08-08T06:58:04.160Z,100.00
2022-08-08T07:00:52.114Z,100.00
2022-08-08T07:04:36.882Z,100.00
2022-08-08T07:07:12.262Z,100.00
2022-08-08T07:10:08.260Z,100.00
2022-08-08T07:13:06.102Z,100.00
2022-08-08T07:16:12.004Z,100.00
2022-08-08T07:19:06.373Z,100.00
2022-08-08T07:22:05.347Z,100.00
2022-08-08T07:25:06.792Z,100.00
2022-08-08T07:28:07.702Z,100.00
2022-08-08T07:30:58.773Z,100.00
2022-08-08T07:33:53.811Z,100.00
2022-08-08T07:36:50.677Z,100.00
2022-08-08T07:39:45.460Z,100.00
2022-08-08T07:42:45.071Z,100.00
2022-08-08T07:45:34.735Z,100.00
2022-08-08T07:48:36.581Z,100.00
2022-08-08T07:51:45.483Z,100.00
2022-08-08T07:54:58.875Z,100.00
2022-08-08T07:58:01.987Z,100.00
2022-08-08T08:00:51.945Z,100.00
2022-08-08T08:03:51.302Z,100.00
2022-08-08T08:06:43.883Z,100.00
2022-08-08T08:09:39.322Z,100.00
2022-08-08T08:12:35.608Z,100.00
2022-08-08T08:15:31.792Z,100.00
2022-08-08T08:18:32.224Z,100.00
2022-08-08T08:21:20.875Z,100.00
2022-08-08T08:24:32.261Z,100.00
2022-08-08T08:27:22.030Z,100.00
2022-08-08T08:30:12.974Z,100.00
2022-08-08T08:32:59.136Z,100.00
2022-08-08T08:36:20.242Z,100.00
2022-08-08T08:38:54.384Z,100.00
2022-08-08T08:41:51.632Z,100.00
2022-08-08T08:44:38.036Z,100.00
2022-08-08T08:47:26.476Z,100.00
2022-08-08T08:50:31.859Z,100.00
2022-08-08T08:53:54.695Z,100.00
2022-08-08T08:56:32.419Z,100.00
2022-08-08T09:00:01.461Z,100.00
2022-08-08T09:02:41.699Z,100.00
2022-08-08T09:05:53.860Z,100.00
2022-08-08T09:08:44.481Z,100.00
2022-08-08T09:11:47.267Z,100.00
2022-08-08T09:14:47.577Z,100.00
2022-08-08T09:17:41.981Z,100.00
2022-08-08T09:21:56.279Z,100.00
2022-08-08T09:23:47.890Z,100.00
2022-08-08T09:26:51.593Z,100.00
2022-08-08T09:29:56.964Z,100.00
2022-08-08T09:33:12.947Z,100.00
2022-08-08T09:36:03.585Z,100.00
2022-08-08T09:38:56.185Z,100.00
2022-08-08T09:41:54.802Z,100.00
2022-08-08T09:45:15.539Z,100.00
2022-08-08T09:48:17.992Z,100.00
2022-08-08T09:51:09.441Z,100.00
2022-08-08T09:54:09.411Z,99.28
2022-08-08T09:57:03.177Z,97.58
2022-08-08T10:00:28.820Z,96.10
2022-08-08T10:03:02.820Z,93.01
2022-08-08T10:05:49.672Z,93.66
2022-08-08T10:08:44.302Z,91.31
2022-08-08T10:12:28.182Z,89.00
2022-08-08T10:14:39.611Z,86.68
2022-08-08T10:17:56.380Z,84.57
2022-08-08T10:20:57.409Z,78.31
2022-08-08T10:23:58.798Z,77.93
2022-08-08T10:26:59.493Z,80.36
2022-08-08T10:30:03.954Z,69.47
2022-08-08T10:33:00.935Z,71.52
2022-08-08T10:36:07.420Z,74.42
2022-08-08T10:39:07.081Z,73.88
2022-08-08T10:42:15.382Z,75.34
2022-08-08T10:45:08.850Z,74.56
2022-08-08T10:47:58.918Z,76.53
2022-08-08T10:50:45.220Z,76.51
2022-08-08T10:53:56.397Z,76.80
2022-08-08T10:56:43.753Z,67.40
2022-08-08T10:59:31.241Z,68.75
2022-08-08T11:02:33.551Z,69.12
2022-08-08T11:05:19.377Z,64.30
2022-08-08T11:08:37.219Z,61.88
2022-08-08T11:11:32.650Z,57.15
2022-08-08T11:14:26.315Z,56.01
2022-08-08T11:17:14.936Z,54.33
2022-08-08T11:20:11.020Z,51.75
2022-08-08T11:23:01.245Z,56.21
2022-08-08T11:25:56.048Z,52.38
2022-08-08T11:28:44.986Z,52.72
2022-08-08T11:31:43.597Z,55.41
2022-08-08T11:34:52.445Z,56.17
2022-08-08T11:38:39.212Z,51.59
2022-08-08T11:40:52.491Z,51.56
2022-08-08T11:43:42.161Z,52.73
2022-08-08T11:46:31.358Z,52.02
2022-08-08T11:49:17.629Z,51.49
2022-08-08T11:52:03.683Z,54.37
2022-08-08T11:54:50.125Z,50.71
2022-08-08T11:57:40.052Z,49.67
2022-08-08T12:00:28.879Z,49.69
2022-08-08T12:03:21.327Z,48.98
2022-08-08T12:06:15.147Z,48.40
2022-08-08T12:09:17.036Z,47.09
2022-08-08T12:12:04.839Z,55.75
2022-08-08T12:15:01.106Z,57.24
2022-08-08T12:17:50.863Z,53.98
2022-08-08T12:20:39.276Z,52.34
2022-08-08T12:23:43.503Z,52.05
2022-08-08T12:26:44.661Z,54.01
2022-08-08T12:29:41.066Z,51.63
2022-08-08T12:32:42.206Z,51.87
2022-08-08T12:35:39.668Z,53.50
2022-08-08T12:38:31.234Z,50.75
2022-08-08T12:41:35.414Z,52.17
2022-08-08T12:44:30.235Z,51.56
2022-08-08T12:47:57.896Z,50.83
2022-08-08T12:50:46.680Z,51.27
2022-08-08T12:53:37.852Z,52.40
2022-08-08T12:56:35.985Z,54.40
2022-08-08T12:59:36.292Z,49.36
2022-08-08T13:02:35.840Z,51.55
2022-08-08T13:05:26.583Z,50.34
2022-08-08T13:08:53.095Z,49.50
2022-08-08T13:12:27.354Z,48.38
2022-08-08T13:14:53.303Z,48.76
2022-08-08T13:18:08.747Z,51.21
2022-08-08T13:20:48.854Z,48.49
2022-08-08T13:23:41.251Z,52.76
2022-08-08T13:26:32.362Z,49.05
2022-08-08T13:29:18.210Z,49.64
2022-08-08T13:32:07.373Z,47.79
2022-08-08T13:34:58.950Z,48.56
2022-08-08T13:38:04.696Z,48.96
2022-08-08T13:40:51.591Z,49.48
2022-08-08T13:43:37.707Z,47.52
2022-08-08T13:46:26.686Z,46.33
2022-08-08T13:50:35.972Z,46.29
2022-08-08T13:52:37.598Z,47.18
2022-08-08T13:55:29.352Z,46.40
2022-08-08T13:58:22.239Z,45.53
2022-08-08T14:01:41.995Z,44.14
2022-08-08T14:04:35.554Z,46.73
2022-08-08T14:07:23.261Z,46.41
2022-08-08T14:10:17.138Z,46.16
2022-08-08T14:13:06.294Z,44.81
2022-08-08T14:16:16.048Z,45.43
2022-08-08T14:19:02.977Z,44.42
2022-08-08T14:21:56.447Z,46.38
2022-08-08T14:24:48.760Z,43.63
2022-08-08T14:27:37.690Z,41.97
2022-08-08T14:30:34.081Z,45.09
2022-08-08T14:33:36.571Z,43.18
2022-08-08T14:36:36.852Z,45.25
2022-08-08T14:39:25.061Z,44.03
2022-08-08T14:42:30.912Z,43.35
2022-08-08T14:45:18.345Z,41.11
2022-08-08T14:48:16.588Z,44.07
2022-08-08T14:51:06.761Z,44.15
2022-08-08T14:53:55.127Z,43.94
2022-08-08T14:56:42.680Z,43.57
2022-08-08T14:59:44.589Z,42.79
2022-08-08T15:02:35.560Z,43.08
2022-08-08T15:05:33.999Z,41.68
2022-08-08T15:08:35.432Z,41.84
2022-08-08T15:11:24.230Z,43.75
2022-08-08T15:14:13.697Z,44.75
2022-08-08T15:17:00.127Z,43.34
2022-08-08T15:19:48.506Z,43.67
2022-08-08T15:22:35.648Z,43.65
2022-08-08T15:25:29.359Z,44.57
2022-08-08T15:28:33.257Z,43.79
2022-08-08T15:31:56.250Z,41.68
2022-08-08T15:34:31.946Z,43.88
2022-08-08T15:37:19.147Z,43.58
2022-08-08T15:40:11.246Z,44.88
2022-08-08T15:43:00.568Z,42.88
2022-08-08T15:45:49.476Z,43.04
2022-08-08T15:48:36.403Z,43.77
2022-08-08T15:51:22.916Z,43.77
2022-08-08T15:54:18.875Z,43.33
2022-08-08T15:57:20.678Z,44.67
2022-08-08T16:00:26.844Z,44.50
2022-08-08T16:03:12.999Z,43.38
2022-08-08T16:06:01.889Z,43.95
2022-08-08T16:09:02.379Z,44.27
2022-08-08T16:13:14.106Z,46.25
2022-08-08T16:14:59.430Z,46.31
2022-08-08T16:18:06.725Z,46.00
2022-08-08T16:20:51.335Z,43.70
2022-08-08T16:23:36.783Z,44.59
2022-08-08T16:26:34.633Z,45.88
2022-08-08T16:29:37.012Z,44.47
2022-08-08T16:32:27.491Z,42.65
2022-08-08T16:35:13.626Z,44.78
2022-08-08T16:38:04.410Z,46.01
2022-08-08T16:40:49.958Z,45.32
2022-08-08T16:43:48.937Z,46.91
2022-08-08T16:46:46.326Z,45.87
2022-08-08T16:49:38.309Z,46.12
2022-08-08T16:55:06.672Z,46.03
2022-08-08T16:55:53.141Z,46.53
2022-08-08T16:58:37.332Z,47.36
2022-08-08T17:01:25.275Z,46.69
2022-08-08T17:04:16.489Z,45.83
2022-08-08T17:07:02.869Z,46.69
2022-08-08T17:09:52.237Z,47.49
2022-08-08T17:12:38.587Z,46.22
2022-08-08T17:15:27.135Z,46.48
2022-08-08T17:18:32.758Z,46.29
2022-08-08T17:21:18.605Z,45.10
2022-08-08T17:24:22.036Z,46.51
2022-08-08T17:27:12.953Z,46.76
2022-08-08T17:30:08.485Z,46.57
2022-08-08T17:34:37.412Z,47.91
2022-08-08T17:36:12.484Z,49.08
2022-08-08T17:39:45.984Z,51.19
2022-08-08T17:42:11.809Z,52.38
2022-08-08T17:44:58.623Z,49.06
2022-08-08T17:47:44.243Z,50.67
2022-08-08T17:50:36.621Z,49.83
2022-08-08T17:53:31.263Z,49.56
2022-08-08T17:56:28.079Z,51.68
2022-08-08T17:59:17.266Z,51.93
2022-08-08T18:02:04.141Z,50.10
2022-08-08T18:04:50.728Z,53.37
2022-08-08T18:08:03.413Z,52.06
2022-08-08T18:10:42.169Z,50.72
2022-08-08T18:13:28.127Z,51.09
2022-08-08T18:16:23.677Z,52.88
2022-08-08T18:19:17.957Z,53.06
2022-08-08T18:22:05.145Z,51.78
2022-08-08T18:24:51.247Z,53.26
2022-08-08T18:27:38.312Z,52.45
2022-08-08T18:30:29.161Z,52.53
2022-08-08T18:33:36.751Z,52.20
2022-08-08T18:36:23.226Z,53.99
2022-08-08T18:39:10.232Z,52.75
2022-08-08T18:42:03.670Z,53.62
2022-08-08T18:44:55.640Z,57.43
2022-08-08T18:47:42.846Z,58.71
2022-08-08T18:50:29.409Z,62.02
2022-08-08T18:53:16.821Z,63.79
2022-08-08T18:56:05.841Z,67.24
2022-08-08T18:58:53.838Z,68.17
2022-08-08T19:02:26.886Z,70.23
2022-08-08T19:04:45.080Z,72.80
2022-08-08T19:07:37.301Z,73.76
2022-08-08T19:10:23.597Z,77.03
2022-08-08T19:13:21.598Z,78.76
2022-08-08T19:16:19.154Z,77.96
2022-08-08T19:19:09.806Z,81.06
2022-08-08T19:21:59.054Z,81.34
2022-08-08T19:26:02.242Z,84.22
2022-08-08T19:27:57.450Z,86.71
2022-08-08T19:30:51.399Z,84.78
2022-08-08T19:34:05.133Z,87.84
2022-08-08T19:36:58.759Z,85.81
2022-08-08T19:39:46.296Z,90.32
2022-08-08T19:42:36.736Z,91.31
2022-08-08T19:45:59.880Z,93.48
2022-08-08T19:48:30.843Z,94.18
2022-08-08T19:51:16.841Z,95.46
2022-08-08T19:54:19.494Z,97.43
2022-08-08T19:57:07.763Z,98.70
2022-08-08T19:59:53.387Z,99.82
2022-08-08T20:02:39.572Z,99.84
2022-08-08T20:06:12.730Z,100.00
2022-08-08T20:08:32.357Z,100.00
2022-08-08T20:11:21.802Z,100.00
2022-08-08T20:14:31.855Z,100.00
2022-08-08T20:17:13.657Z,100.00
2022-08-08T20:20:16.084Z,100.00
2022-08-08T20:23:12.321Z,100.00
2022-08-08T20:26:01.558Z,100.00
2022-08-08T20:28:47.937Z,100.00
2022-08-08T20:32:07.134Z,100.00
2022-08-08T20:34:47.508Z,100.00
2022-08-08T20:37:46.951Z,100.00
2022-08-08T20:40:41.148Z,100.00
2022-08-08T20:43:43.553Z,100.00
2022-08-08T20:46:33.301Z,100.00
2022-08-08T20:49:19.301Z,100.00
2022-08-08T20:52:07.846Z,100.00
2022-08-08T20:54:54.290Z,100.00
2022-08-08T20:57:43.744Z,100.00
2022-08-08T21:00:35.970Z,100.00
2022-08-08T21:03:29.710Z,100.00
2022-08-08T21:06:15.893Z,100.00
2022-08-08T21:09:01.655Z,100.00
2022-08-08T21:11:51.394Z,100.00
2022-08-08T21:14:37.828Z,100.00
2022-08-08T21:17:25.146Z,100.00
2022-08-08T21:20:11.270Z,100.00
2022-08-08T21:22:57.156Z,100.00
2022-08-08T21:25:43.574Z,100.00
2022-08-08T21:28:35.480Z,100.00
2022-08-08T21:31:23.494Z,100.00
2022-08-08T21:34:09.301Z,100.00
2022-08-08T21:37:11.230Z,100.00
2022-08-08T21:40:05.089Z,100.00
2022-08-08T21:42:51.126Z,100.00
2022-08-08T21:48:00.745Z,100.00
2022-08-08T21:48:49.204Z,100.00
2022-08-08T21:54:17.078Z,100.00
2022-08-08T21:54:58.113Z,100.00
2022-08-08T21:58:05.294Z,100.00
2022-08-08T22:00:54.908Z,100.00
2022-08-08T22:03:40.534Z,100.00
2022-08-08T22:06:31.101Z,100.00
2022-08-08T22:09:17.374Z,100.00
2022-08-08T22:12:09.394Z,100.00
2022-08-08T22:14:55.669Z,100.00
2022-08-08T22:17:45.598Z,100.00
2022-08-08T22:20:31.765Z,100.00
2022-08-08T22:23:17.611Z,100.00
2022-08-08T22:26:27.167Z,100.00
2022-08-08T22:29:57.145Z,100.00
2022-08-08T22:32:14.840Z,100.00
2022-08-08T22:35:00.319Z,100.00
2022-08-08T22:37:54.179Z,100.00
2022-08-08T22:40:40.983Z,100.00
2022-08-08T22:43:26.691Z,100.00
2022-08-08T22:46:17.448Z,100.00
2022-08-08T22:49:02.908Z,100.00
2022-08-08T22:51:51.309Z,100.00
2022-08-08T22:54:53.949Z,100.00
2022-08-08T22:57:49.370Z,100.00
2022-08-08T23:00:35.459Z,100.00
2022-08-08T23:03:21.179Z,100.00
2022-08-08T23:06:07.042Z,100.00
2022-08-08T23:08:58.606Z,100.00
2022-08-08T23:12:29.130Z,100.00
2022-08-08T23:14:56.166Z,100.00
2022-08-08T23:17:54.154Z,100.00
2022-08-08T23:20:44.541Z,100.00
2022-08-08T23:23:48.742Z,100.00
2022-08-08T23:26:41.425Z,100.00
2022-08-08T23:29:39.783Z,100.00
2022-08-08T23:32:27.787Z,100.00
2022-08-08T23:35:17.187Z,100.00
2022-08-08T23:38:03.986Z,100.00
2022-08-08T23:40:53.192Z,100.00
2022-08-08T23:43:45.618Z,100.00
2022-08-08T23:48:59.924Z,100.00
2022-08-08T23:49:38.747Z,100.00
2022-08-08T23:52:24.145Z,100.00
2022-08-08T23:55:19.379Z,100.00
2022-08-08T23:58:08.087Z,100.00
